Catano Pueblo, Puerto Rico
Current Conditions -  °F | °C
As of 12:56 PM on Saturday 25 Oct 2014 (Local Time) from TJSJ Reporting Station
Scattered Clouds Scattered Clouds  
Wind Chill: 88°   Ceiling: Unl
Heat Index: 99°   Visibility: 10mi
Dew Point: 76°   Wind: 8mph
Humidity: 67%   Direction: 40°NE
Pressure: 29.88"   Gusts: NA
Location:  18.3658°N, 66.0928°W
Report Text: TJSJ 251656Z 04007KT 10SM FEW044 SCT060 SCT075 31/24 A2988 RMK AO2 SLP117 T03110244
Loading
Personal Weather Stations






























Interactive Weather Map
Tropical Storm Tracking
New forecast layout! Learn more

10-Day Weather Forecast

Advertisements
Track Severe Weather on mobile